Time;durP1;ratioP1;P1;durP2;ratioP2;P2;SDS_P1;SDS_P2;PMS_P1;PMS_P2;Temp;Humidity;BMP_temperature;BMP_pressure;BME280_temperature;BME280_humidity;BME280_pressure;Samples;Min_cycle;Max_cycle;Signal;HPM_P1;HPM_P2
2021/12/12 00:00:57;;;;;;;8.07;4.97;;;3.10;78.40;;;;;;5053679;28;20029;-73
2021/12/12 00:03:40;;;;;;;8.20;4.65;;;3.00;77.40;;;;;;5053678;28;20052;-72
2021/12/12 00:06:17;;;;;;;11.13;6.03;;;3.00;78.00;;;;;;5053634;28;20064;-72
2021/12/12 00:08:46;;;;;;;8.15;5.22;;;3.00;77.30;;;;;;5053482;28;20096;-73
2021/12/12 00:11:16;;;;;;;7.63;4.78;;;3.00;77.60;;;;;;5052650;28;20104;-73
2021/12/12 00:13:48;;;;;;;7.30;4.68;;;2.90;77.60;;;;;;5053463;28;20492;-72
2021/12/12 00:16:14;;;;;;;9.73;4.53;;;2.80;77.80;;;;;;5053210;28;20562;-72
2021/12/12 00:18:40;;;;;;;7.82;4.80;;;2.80;77.10;;;;;;5035465;28;20078;-72
2021/12/12 00:21:09;;;;;;;8.90;4.72;;;2.80;77.40;;;;;;5053395;28;20029;-72
2021/12/12 00:23:35;;;;;;;11.48;5.13;;;2.80;77.10;;;;;;5053282;28;20029;-72
2021/12/12 00:26:03;;;;;;;9.00;4.63;;;2.80;77.20;;;;;;5053226;28;20024;-72
2021/12/12 00:28:29;;;;;;;5.97;4.22;;;2.80;77.50;;;;;;5053225;28;20028;-72
2021/12/12 00:31:00;;;;;;;10.35;5.10;;;2.90;77.20;;;;;;5053210;28;20029;-72
2021/12/12 00:33:26;;;;;;;6.88;4.47;;;2.90;77.00;;;;;;5052985;28;20045;-72
2021/12/12 00:35:52;;;;;;;9.38;5.43;;;2.90;76.80;;;;;;5053124;28;20120;-72
2021/12/12 00:38:24;;;;;;;8.15;4.10;;;2.80;76.90;;;;;;5053043;28;20481;-72
2021/12/12 00:40:52;;;;;;;5.25;4.05;;;2.90;76.70;;;;;;5053013;28;20380;-73
2021/12/12 00:43:40;;;;;;;6.80;4.70;;;2.90;76.40;;;;;;5053060;28;20104;-73
2021/12/12 00:46:08;;;;;;;6.32;4.07;;;2.90;76.60;;;;;;5053170;28;20047;-74
2021/12/12 00:48:34;;;;;;;8.52;4.20;;;2.90;76.50;;;;;;5052995;28;20456;-73
2021/12/12 00:51:01;;;;;;;7.88;5.05;;;2.90;76.60;;;;;;5053019;28;20067;-73
2021/12/12 00:53:27;;;;;;;8.20;4.18;;;2.90;76.50;;;;;;5052892;28;20091;-72
2021/12/12 00:55:55;;;;;;;6.22;4.25;;;2.90;76.50;;;;;;5053010;28;20477;-73
2021/12/12 00:58:21;;;;;;;9.82;4.57;;;3.00;76.10;;;;;;5052881;28;20389;-72
2021/12/12 01:00:54;;;;;;;6.78;4.32;;;2.90;75.80;;;;;;5034959;28;20021;-73
2021/12/12 01:03:41;;;;;;;7.05;4.07;;;3.00;75.60;;;;;;5052916;28;20063;-73
2021/12/12 01:06:12;;;;;;;5.85;3.85;;;2.90;76.10;;;;;;5052791;28;20021;-72
2021/12/12 01:08:39;;;;;;;7.22;4.32;;;2.90;75.60;;;;;;5034955;28;20423;-72
2021/12/12 01:11:29;;;;;;;6.95;3.88;;;2.90;75.60;;;;;;5052785;28;20101;-72
2021/12/12 01:13:55;;;;;;;6.32;3.72;;;2.90;75.50;;;;;;5052749;28;20025;-72
2021/12/12 01:16:26;;;;;;;7.72;3.97;;;2.90;75.40;;;;;;5052681;28;20378;-72
2021/12/12 01:19:04;;;;;;;5.47;3.30;;;3.00;75.20;;;;;;5052880;28;20048;-72
2021/12/12 01:21:35;;;;;;;10.35;4.05;;;3.00;74.50;;;;;;5052774;28;20039;-72
2021/12/12 01:24:36;;;;;;;4.82;3.25;;;3.00;74.40;;;;;;5056216;28;20017;-72
2021/12/12 01:27:05;;;;;;;4.85;3.05;;;3.00;74.00;;;;;;5014230;28;20419;-72
2021/12/12 01:29:31;;;;;;;9.95;2.95;;;2.90;74.40;;;;;;5056575;28;20028;-71
2021/12/12 01:32:00;;;;;;;9.07;4.30;;;3.00;74.40;;;;;;5038417;28;20045;-72
2021/12/12 01:34:29;;;;;;;6.57;3.78;;;3.00;74.70;;;;;;5056223;28;20021;-72
2021/12/12 01:39:33;;;;;;;5.65;4.00;;;2.90;75.00;;;;;;5056460;28;20032;-72
2021/12/12 01:42:09;;;;;;;5.07;4.28;;;2.80;75.60;;;;;;5056339;28;20025;-73
2021/12/12 01:44:44;;;;;;;7.63;3.60;;;2.80;75.70;;;;;;5056434;28;20021;-72
2021/12/12 01:47:19;;;;;;;6.28;4.00;;;2.80;75.80;;;;;;5056295;28;20032;-73
2021/12/12 01:49:48;;;;;;;3.70;2.55;;;2.80;75.30;;;;;;5066046;28;20025;-72
2021/12/12 01:52:18;;;;;;;4.93;3.15;;;2.80;75.10;;;;;;5058073;28;20028;-72
2021/12/12 01:54:46;;;;;;;5.72;3.47;;;2.90;75.20;;;;;;5056116;28;20036;-72
2021/12/12 01:57:21;;;;;;;3.55;2.47;;;2.90;74.90;;;;;;5038145;28;20381;-72
2021/12/12 01:59:48;;;;;;;;;;;2.90;74.40;;;;;;5056475;28;20079;-72
2021/12/12 02:02:18;;;;;;;5.20;2.63;;;2.80;73.80;;;;;;5055993;28;20319;-72
2021/12/12 02:04:54;;;;;;;3.88;2.60;;;2.70;74.00;;;;;;5038079;28;20397;-72
2021/12/12 02:07:25;;;;;;;5.97;3.60;;;2.80;74.20;;;;;;5055626;28;20508;-72
2021/12/12 02:09:52;;;;;;;6.13;2.92;;;2.70;74.20;;;;;;5055884;28;20473;-72
2021/12/12 02:12:26;;;;;;;3.95;2.20;;;2.70;74.40;;;;;;5055805;28;20071;-72
2021/12/12 02:14:53;;;;;;;4.90;2.50;;;2.60;74.40;;;;;;5055709;28;20064;-72
2021/12/12 02:17:33;;;;;;;5.10;2.10;;;2.70;74.50;;;;;;5055775;28;20481;-72
2021/12/12 02:20:07;;;;;;;4.55;2.03;;;2.70;75.50;;;;;;5055695;28;20070;-73
2021/12/12 02:35:58;;;;;;;2.20;1.85;;;2.70;74.20;;;;;;5054987;28;20068;-72
2021/12/12 02:38:29;;;;;;;1.85;1.60;;;2.70;74.30;;;;;;5055197;28;20381;-72
2021/12/12 02:41:03;;;;;;;1.92;1.75;;;2.60;74.50;;;;;;5055240;28;20029;-71
2021/12/12 02:43:35;;;;;;;3.47;1.70;;;2.60;74.60;;;;;;5037328;28;20025;-72
2021/12/12 02:46:02;;;;;;;3.85;1.75;;;2.60;74.50;;;;;;5055255;28;20070;-72
2021/12/12 02:48:39;;;;;;;1.95;1.63;;;2.60;74.30;;;;;;5037274;28;20029;-72
2021/12/12 02:51:10;;;;;;;2.20;2.00;;;2.60;74.50;;;;;;5055104;28;20100;-72
2021/12/12 02:53:43;;;;;;;4.00;1.80;;;2.60;74.70;;;;;;5054954;28;20021;-72
2021/12/12 02:56:16;;;;;;;4.72;2.22;;;2.60;74.40;;;;;;5054947;28;20075;-72
2021/12/12 02:58:43;;;;;;;3.25;2.05;;;2.60;74.10;;;;;;5054889;28;20079;-72
2021/12/12 03:01:23;;;;;;;3.45;2.05;;;2.60;74.40;;;;;;5036946;28;20386;-72
2021/12/12 03:03:50;;;;;;;2.88;2.30;;;2.50;74.70;;;;;;5054871;28;20052;-72
2021/12/12 03:06:20;;;;;;;3.83;1.98;;;2.50;74.80;;;;;;5054695;28;20370;-72
2021/12/12 03:08:49;;;;;;;2.33;1.73;;;2.40;74.90;;;;;;5054769;28;20497;-72
2021/12/12 03:11:15;;;;;;;3.70;2.25;;;2.50;75.30;;;;;;5054660;28;20021;-72
2021/12/12 03:13:42;;;;;;;3.80;2.50;;;2.50;75.20;;;;;;5054544;28;20027;-72
2021/12/12 03:16:08;;;;;;;2.85;2.28;;;2.50;76.10;;;;;;5054676;28;20025;-72
2021/12/12 03:18:40;;;;;;;2.13;1.70;;;2.50;75.30;;;;;;5036632;28;20078;-73
2021/12/12 03:21:15;;;;;;;2.75;1.92;;;2.50;75.50;;;;;;5054525;28;20024;-72
2021/12/12 03:23:49;;;;;;;4.18;2.40;;;2.40;75.80;;;;;;5054467;28;20025;-72
2021/12/12 03:26:16;;;;;;;4.60;2.35;;;2.40;75.90;;;;;;5054567;28;20136;-72
2021/12/12 03:28:45;;;;;;;5.78;2.83;;;2.30;76.00;;;;;;5054434;28;20143;-72
2021/12/12 03:31:34;;;;;;;3.45;2.20;;;2.20;76.40;;;;;;5054375;28;20017;-72
2021/12/12 03:34:00;;;;;;;3.75;2.63;;;2.10;76.80;;;;;;5053751;28;20120;-72
2021/12/12 03:36:27;;;;;;;3.28;2.10;;;2.10;77.30;;;;;;5054365;28;20021;-72
2021/12/12 03:38:59;;;;;;;5.15;2.30;;;2.00;77.50;;;;;;5064516;28;20043;-72
2021/12/12 03:41:29;;;;;;;3.50;2.00;;;2.00;78.00;;;;;;5058277;28;20465;-73
2021/12/12 03:44:01;;;;;;;2.90;1.90;;;1.90;79.00;;;;;;5054182;28;20036;-72
2021/12/12 03:46:27;;;;;;;2.10;1.80;;;1.90;78.50;;;;;;5054042;28;20020;-72
2021/12/12 03:48:55;;;;;;;2.65;1.98;;;1.90;78.50;;;;;;5053974;28;20111;-71
2021/12/12 03:51:24;;;;;;;2.40;1.75;;;1.90;78.30;;;;;;5057826;28;20025;-72
2021/12/12 03:53:50;;;;;;;5.45;1.60;;;1.90;78.20;;;;;;5055692;28;20045;-72
2021/12/12 03:56:17;;;;;;;2.13;1.83;;;1.80;78.30;;;;;;5053847;28;20021;-73
2021/12/12 03:58:44;;;;;;;5.43;1.85;;;1.80;78.00;;;;;;5053960;28;20025;-72
2021/12/12 04:01:22;;;;;;;3.15;1.92;;;1.70;78.30;;;;;;5054096;28;20044;-73
2021/12/12 04:03:51;;;;;;;3.35;2.30;;;1.70;78.80;;;;;;5036093;28;20029;-72
2021/12/12 04:06:19;;;;;;;4.70;2.30;;;1.50;79.10;;;;;;5053679;28;20106;-72
2021/12/12 04:08:48;;;;;;;2.35;1.70;;;1.40;79.30;;;;;;5053646;28;20142;-72
2021/12/12 04:11:37;;;;;;;3.50;1.90;;;1.50;79.30;;;;;;5035737;28;20420;-72
2021/12/12 04:14:04;;;;;;;2.67;1.65;;;1.50;79.10;;;;;;5053469;28;20035;-72
2021/12/12 04:16:33;;;;;;;1.98;1.80;;;1.60;78.80;;;;;;5053439;28;20432;-72
2021/12/12 04:18:59;;;;;;;2.35;2.00;;;1.50;79.00;;;;;;5053322;28;20075;-74
2021/12/12 04:21:27;;;;;;;4.60;1.98;;;1.50;79.40;;;;;;5053412;28;20029;-74
2021/12/12 04:23:54;;;;;;;5.07;2.13;;;1.50;79.60;;;;;;5053373;28;20416;-74
2021/12/12 04:26:30;;;;;;;3.80;2.08;;;1.40;80.10;;;;;;5036409;28;20032;-74
2021/12/12 04:29:10;;;;;;;2.88;2.00;;;1.40;80.30;;;;;;5053622;28;20033;-74
2021/12/12 04:31:37;;;;;;;2.33;1.83;;;1.40;80.50;;;;;;5053130;28;20064;-73
2021/12/12 04:34:04;;;;;;;2.58;1.90;;;1.30;80.60;;;;;;5053101;28;20067;-73
2021/12/12 04:36:37;;;;;;;2.38;2.00;;;1.40;80.50;;;;;;5053153;28;20021;-74
2021/12/12 04:39:09;;;;;;;2.47;2.03;;;1.30;80.20;;;;;;5053161;28;20025;-73
2021/12/12 04:41:35;;;;;;;2.13;1.50;;;1.30;80.40;;;;;;5053186;28;20039;-73
2021/12/12 04:44:01;;;;;;;2.25;1.63;;;1.20;80.50;;;;;;5053045;28;20029;-73
2021/12/12 04:49:54;;;;;;;4.60;2.08;;;1.20;80.50;;;;;;5053031;28;20044;-73
2021/12/12 04:52:03;;;;;;;2.20;1.73;;;1.30;80.10;;;;;;5053002;28;20092;-74
2021/12/12 04:54:31;;;;;;;2.00;1.80;;;1.30;80.00;;;;;;5035082;28;20481;-74
2021/12/12 04:57:00;;;;;;;3.38;1.90;;;1.30;79.90;;;;;;5052466;28;20029;-73
2021/12/12 04:59:36;;;;;;;1.98;1.45;;;1.40;79.50;;;;;;5053016;28;20022;-73
2021/12/12 05:02:08;;;;;;;3.00;1.90;;;1.40;79.40;;;;;;5052836;28;20021;-73
2021/12/12 05:04:33;;;;;;;2.55;1.73;;;1.40;79.20;;;;;;5052849;28;20028;-74
2021/12/12 05:07:18;;;;;;;3.05;1.85;;;1.40;79.10;;;;;;5052917;28;20024;-73
2021/12/12 05:10:11;;;;;;;2.35;1.55;;;1.40;78.90;;;;;;5052846;28;20461;-73
2021/12/12 05:12:50;;;;;;;3.67;1.52;;;1.40;78.80;;;;;;5052814;28;20072;-73
2021/12/12 05:15:28;;;;;;;1.65;1.35;;;1.40;78.80;;;;;;5034840;28;20037;-74
2021/12/12 05:18:08;;;;;;;2.45;1.80;;;1.40;78.90;;;;;;5052763;28;20017;-74
2021/12/12 05:20:45;;;;;;;1.95;1.70;;;1.40;78.90;;;;;;5052743;28;20481;-73
2021/12/12 05:23:15;;;;;;;2.50;1.63;;;1.40;79.20;;;;;;5052719;28;20025;-73
2021/12/12 05:25:52;;;;;;;4.47;2.03;;;1.40;79.30;;;;;;5052771;28;20378;-73
2021/12/12 05:28:19;;;;;;;2.88;1.90;;;1.40;79.30;;;;;;5052693;28;20033;-73
2021/12/12 05:30:46;;;;;;;2.28;1.67;;;1.40;79.20;;;;;;5052087;28;20025;-73
2021/12/12 05:33:15;;;;;;;2.60;2.05;;;1.40;79.30;;;;;;5052215;28;20055;-72
2021/12/12 05:35:41;;;;;;;2.45;1.77;;;1.30;79.40;;;;;;5052641;28;20068;-73
2021/12/12 05:38:08;;;;;;;4.65;1.95;;;1.30;79.70;;;;;;5052918;28;20052;-72
2021/12/12 05:40:37;;;;;;;2.28;1.80;;;1.30;79.70;;;;;;5037292;28;20025;-73
2021/12/12 05:43:05;;;;;;;3.42;2.30;;;1.30;79.60;;;;;;5055616;28;20037;-73
2021/12/12 05:45:33;;;;;;;3.05;2.10;;;1.20;79.80;;;;;;5055693;28;20033;-74
2021/12/12 05:47:59;;;;;;;2.05;1.80;;;1.20;80.10;;;;;;5056216;28;20021;-73
2021/12/12 05:50:26;;;;;;;3.35;2.53;;;1.10;80.30;;;;;;5061926;28;20017;-73
2021/12/12 05:52:54;;;;;;;2.63;2.13;;;1.00;80.50;;;;;;5059037;28;20045;-73
2021/12/12 05:55:25;;;;;;;3.47;2.75;;;0.90;81.10;;;;;;5056842;28;20032;-72
2021/12/12 05:57:55;;;;;;;2.92;2.33;;;0.90;81.10;;;;;;5056392;28;20017;-72
2021/12/12 06:00:26;;;;;;;3.80;2.35;;;0.90;81.30;;;;;;5042338;28;20033;-73
2021/12/12 06:02:53;;;;;;;3.50;2.40;;;0.90;81.30;;;;;;5057558;28;20021;-73
2021/12/12 06:05:18;;;;;;;4.30;3.05;;;0.90;81.20;;;;;;5052437;28;20017;-73
2021/12/12 06:07:45;;;;;;;3.50;2.35;;;0.90;81.10;;;;;;5034676;28;20398;-73
2021/12/12 06:10:14;;;;;;;3.85;2.80;;;0.90;81.20;;;;;;5054089;28;20174;-73
2021/12/12 06:12:40;;;;;;;3.95;2.85;;;0.90;81.20;;;;;;5055743;28;20021;-73
2021/12/12 06:15:09;;;;;;;3.47;2.45;;;0.90;81.20;;;;;;5055668;28;20107;-73
2021/12/12 06:17:35;;;;;;;4.43;2.92;;;0.90;81.00;;;;;;5055700;28;20025;-74
2021/12/12 06:20:03;;;;;;;4.10;2.97;;;0.90;81.00;;;;;;5055557;28;20036;-73
2021/12/12 06:22:29;;;;;;;2.75;2.20;;;0.90;81.00;;;;;;5055510;28;20466;-73
2021/12/12 06:24:55;;;;;;;4.47;2.90;;;0.90;80.90;;;;;;5055651;28;20078;-74
2021/12/12 06:27:21;;;;;;;3.88;2.67;;;0.90;81.10;;;;;;5055560;28;20021;-73
2021/12/12 06:29:51;;;;;;;4.15;3.03;;;0.90;80.90;;;;;;5055655;28;20079;-73
2021/12/12 06:32:18;;;;;;;3.83;2.53;;;0.80;80.80;;;;;;5046168;28;20072;-74
2021/12/12 06:34:44;;;;;;;3.45;2.40;;;0.80;80.90;;;;;;5071520;28;20040;-73
2021/12/12 06:37:10;;;;;;;3.42;2.38;;;0.90;80.80;;;;;;5057120;28;20116;-73
2021/12/12 06:39:37;;;;;;;4.53;3.08;;;0.90;80.60;;;;;;5055225;28;20068;-73
2021/12/12 06:42:04;;;;;;;3.45;2.33;;;0.90;80.50;;;;;;5055237;28;20053;-74
2021/12/12 06:44:31;;;;;;;3.53;2.53;;;0.80;80.60;;;;;;5037283;28;20083;-73
2021/12/12 06:46:59;;;;;;;2.92;2.30;;;0.80;80.60;;;;;;5055223;28;20029;-73
2021/12/12 06:49:25;;;;;;;2.72;2.22;;;0.80;80.80;;;;;;5055055;28;20025;-73
2021/12/12 06:51:55;;;;;;;3.67;2.80;;;0.80;81.00;;;;;;5055150;28;20528;-73
2021/12/12 06:54:25;;;;;;;3.40;2.60;;;0.80;80.90;;;;;;5054830;28;20126;-73
2021/12/12 06:56:54;;;;;;;4.13;2.92;;;0.80;80.90;;;;;;5055035;28;20021;-72
2021/12/12 06:59:26;;;;;;;3.58;3.03;;;0.70;80.80;;;;;;5054920;28;20027;-72
2021/12/12 07:01:52;;;;;;;4.63;2.50;;;0.70;80.80;;;;;;5054882;28;20025;-72
2021/12/12 07:04:21;;;;;;;3.40;2.25;;;0.70;80.70;;;;;;5054716;28;20029;-73
2021/12/12 07:06:48;;;;;;;4.38;2.33;;;0.70;80.40;;;;;;5054753;28;20021;-73
2021/12/12 07:09:16;;;;;;;3.83;2.47;;;0.80;79.60;;;;;;5054743;28;20029;-72
2021/12/12 07:11:42;;;;;;;3.08;2.53;;;0.90;79.80;;;;;;5054582;28;20029;-72
2021/12/12 07:14:11;;;;;;;3.42;2.50;;;0.90;79.60;;;;;;5054630;28;20033;-72
2021/12/12 07:16:37;;;;;;;3.85;2.42;;;0.90;79.50;;;;;;5054576;28;20385;-72
2021/12/12 07:19:04;;;;;;;3.58;2.40;;;1.00;79.50;;;;;;5054630;28;20021;-73
2021/12/12 07:21:30;;;;;;;4.22;2.72;;;1.00;79.50;;;;;;5054078;28;20423;-73
2021/12/12 07:23:58;;;;;;;4.00;2.72;;;1.00;79.40;;;;;;5054646;28;20033;-72
2021/12/12 07:26:24;;;;;;;3.08;2.55;;;1.10;79.40;;;;;;5054423;28;20080;-73
2021/12/12 07:28:52;;;;;;;4.22;2.20;;;1.10;79.40;;;;;;5054435;28;20152;-72
2021/12/12 07:31:21;;;;;;;4.35;2.83;;;1.20;79.20;;;;;;5054177;28;20020;-72
2021/12/12 07:33:51;;;;;;;6.32;3.35;;;1.20;78.80;;;;;;5036243;28;20041;-73
2021/12/12 07:36:20;;;;;;;4.95;2.95;;;1.20;78.10;;;;;;5036297;28;20025;-73
2021/12/12 07:38:48;;;;;;;4.97;2.47;;;1.30;78.20;;;;;;5036401;28;20017;-72
2021/12/12 07:41:17;;;;;;;3.70;2.38;;;1.30;78.10;;;;;;5036188;28;20481;-72
2021/12/12 07:43:43;;;;;;;4.72;2.58;;;1.40;77.70;;;;;;5054099;28;20324;-72
2021/12/12 07:46:09;;;;;;;4.00;2.70;;;1.40;77.40;;;;;;5054051;28;20017;-72
2021/12/12 07:48:39;;;;;;;4.78;2.63;;;1.50;77.20;;;;;;5053841;28;20029;-73
2021/12/12 07:51:06;;;;;;;2.35;1.83;;;1.60;77.00;;;;;;5053987;28;20040;-73
2021/12/12 07:53:32;;;;;;;4.18;2.90;;;1.60;77.60;;;;;;5053670;28;20024;-73
2021/12/12 07:55:58;;;;;;;4.00;2.58;;;1.60;76.50;;;;;;5053852;28;20032;-72
2021/12/12 07:58:25;;;;;;;2.58;2.00;;;1.70;76.20;;;;;;5035726;28;20036;-72
2021/12/12 08:00:54;;;;;;;3.38;2.40;;;1.70;76.10;;;;;;5035874;28;20025;-76
2021/12/12 08:03:25;;;;;;;3.65;2.17;;;1.80;75.90;;;;;;5053651;28;20086;-73
2021/12/12 08:05:51;;;;;;;3.40;2.17;;;1.90;75.50;;;;;;5035688;28;20098;-73
2021/12/12 08:08:17;;;;;;;2.88;1.75;;;2.00;75.30;;;;;;5057039;28;20113;-73
2021/12/12 08:10:45;;;;;;;3.05;2.28;;;2.10;74.90;;;;;;5058793;28;20036;-73
2021/12/12 08:13:12;;;;;;;3.03;2.40;;;2.10;74.80;;;;;;5053289;28;20028;-74
2021/12/12 08:15:38;;;;;;;3.30;1.92;;;2.30;74.30;;;;;;5053235;28;20045;-74
2021/12/12 08:18:07;;;;;;;5.25;3.80;;;2.40;73.90;;;;;;5053406;28;20484;-73
2021/12/12 08:20:34;;;;;;;6.60;4.28;;;2.60;73.40;;;;;;5053343;28;20033;-72
2021/12/12 08:22:59;;;;;;;3.10;2.35;;;2.70;73.60;;;;;;5053435;28;20028;-73
2021/12/12 08:25:26;;;;;;;2.72;1.88;;;2.90;71.90;;;;;;5053081;28;20024;-74
2021/12/12 08:27:54;;;;;;;2.28;1.80;;;3.00;71.00;;;;;;5053330;28;20075;-76
2021/12/12 08:30:21;;;;;;;3.40;2.10;;;3.00;70.70;;;;;;5053162;28;20025;-77
2021/12/12 08:32:49;;;;;;;2.40;1.70;;;3.00;70.30;;;;;;5052181;28;20408;-72
2021/12/12 08:35:17;;;;;;;2.42;1.77;;;3.10;70.60;;;;;;5052943;28;20029;-72
2021/12/12 08:37:44;;;;;;;2.42;1.50;;;3.30;70.00;;;;;;5053209;28;20104;-72
2021/12/12 08:40:14;;;;;;;6.13;2.20;;;3.60;69.40;;;;;;5053043;28;20032;-77
2021/12/12 08:42:40;;;;;;;3.17;1.95;;;3.70;67.40;;;;;;5052964;28;20017;-74
2021/12/12 08:45:10;;;;;;;2.63;1.65;;;3.80;66.80;;;;;;5052885;28;20086;-73
2021/12/12 08:47:36;;;;;;;3.15;1.95;;;3.80;65.90;;;;;;5052993;28;20029;-74
2021/12/12 08:50:07;;;;;;;3.22;1.98;;;3.80;66.20;;;;;;5052936;28;20032;-74
2021/12/12 08:52:37;;;;;;;1.98;1.67;;;3.90;66.50;;;;;;5035594;28;20381;-74
2021/12/12 08:55:08;;;;;;;2.08;1.80;;;4.00;68.20;;;;;;5054463;28;20163;-72
2021/12/12 08:57:44;;;;;;;2.63;1.80;;;4.20;67.60;;;;;;5036596;28;20025;-80
2021/12/12 09:00:15;;;;;;;3.53;2.13;;;4.40;67.50;;;;;;5054230;28;20053;-78
2021/12/12 09:02:41;;;;;;;2.42;1.75;;;4.60;65.50;;;;;;5053628;28;20347;-73
2021/12/12 09:05:13;;;;;;;2.58;2.03;;;4.80;65.10;;;;;;5054504;28;20478;-77
2021/12/12 09:07:44;;;;;;;2.58;1.70;;;4.90;63.70;;;;;;5053730;28;20491;-73
2021/12/12 09:10:26;;;;;;;2.38;1.98;;;5.00;63.20;;;;;;5053485;28;20025;-73
2021/12/12 09:12:58;;;;;;;2.10;1.50;;;5.00;62.70;;;;;;5036327;28;20104;-75
2021/12/12 09:16:04;;;;;;;2.55;1.65;;;5.00;61.90;;;;;;5053234;28;20362;-81
2021/12/12 09:18:46;;;;;;;1.40;1.30;;;4.80;62.20;;;;;;5009236;28;20109;-72
2021/12/12 09:21:35;;;;;;;2.00;1.30;;;4.50;62.30;;;;;;5053319;28;20051;-77
2021/12/12 09:24:11;;;;;;;4.85;1.98;;;4.50;63.40;;;;;;5052945;28;20013;-75
2021/12/12 09:26:44;;;;;;;2.17;1.20;;;4.80;65.70;;;;;;5052404;28;20052;-77
2021/12/12 09:29:23;;;;;;;3.30;1.20;;;5.10;65.50;;;;;;5052378;28;20021;-77
2021/12/12 09:31:54;;;;;;;1.67;1.40;;;5.40;62.40;;;;;;5052757;28;20036;-76
2021/12/12 09:34:37;;;;;;;1.50;1.15;;;5.70;62.50;;;;;;5052801;28;20397;-79
2021/12/12 09:37:10;;;;;;;2.05;1.27;;;5.90;61.10;;;;;;5052556;28;20029;-76
2021/12/12 09:39:43;;;;;;;2.90;1.52;;;6.30;60.60;;;;;;5052962;28;20021;-77
2021/12/12 09:42:48;;;;;;;2.58;1.60;;;6.30;57.60;;;;;;5034527;28;20091;-76
2021/12/12 09:45:48;;;;;;;3.55;1.58;;;6.50;58.90;;;;;;5025841;28;20055;-77
2021/12/12 09:51:49;;;;;;;3.47;1.65;;;6.60;55.50;;;;;;5056103;28;20056;-80
2021/12/12 09:54:20;;;;;;;2.88;1.50;;;6.80;54.90;;;;;;5056153;28;20033;-77
2021/12/12 09:56:56;;;;;;;2.65;1.90;;;6.90;55.60;;;;;;5056079;28;20385;-73
2021/12/12 09:59:50;;;;;;;4.00;2.00;;;6.90;53.70;;;;;;5055924;28;20013;-73
2021/12/12 10:02:50;;;;;;;3.88;1.60;;;6.70;53.20;;;;;;5056266;28;20025;-74
2021/12/12 10:05:49;;;;;;;1.70;1.35;;;6.50;54.20;;;;;;5056091;28;20017;-72
2021/12/12 10:08:42;;;;;;;2.50;1.17;;;6.40;54.00;;;;;;5057592;28;20047;-72
2021/12/12 10:11:10;;;;;;;2.22;1.23;;;6.30;53.50;;;;;;5036775;28;20049;-73
2021/12/12 10:13:58;;;;;;;2.92;1.50;;;6.20;53.50;;;;;;5069342;28;20100;-73
2021/12/12 10:16:55;;;;;;;3.67;1.98;;;6.00;54.00;;;;;;5057498;28;20032;-73
2021/12/12 10:19:29;;;;;;;;;;;6.00;54.80;;;;;;5021045;28;20037;-73
2021/12/12 10:22:28;;;;;;;3.10;1.92;;;6.00;54.80;;;;;;5055493;28;19904;-73
2021/12/12 10:25:09;;;;;;;4.53;2.95;;;5.90;56.00;;;;;;5055084;28;20032;-74
2021/12/12 10:27:45;;;;;;;2.67;1.80;;;5.80;56.00;;;;;;5055481;28;20021;-72
2021/12/12 10:30:23;;;;;;;3.05;2.10;;;5.90;55.80;;;;;;5055222;28;20033;-74
2021/12/12 10:33:15;;;;;;;2.78;2.22;;;5.90;56.70;;;;;;5055202;28;20045;-73
2021/12/12 10:35:46;;;;;;;2.97;1.92;;;5.80;57.40;;;;;;5055108;28;20512;-72
2021/12/12 10:38:37;;;;;;;4.70;2.58;;;5.90;56.90;;;;;;5055143;28;20028;-73
2021/12/12 10:41:30;;;;;;;4.95;2.95;;;6.00;56.60;;;;;;5055186;28;20025;-73
2021/12/12 10:44:22;;;;;;;2.35;1.85;;;5.90;57.00;;;;;;5055150;28;20039;-73
2021/12/12 10:47:17;;;;;;;1.55;1.27;;;6.00;56.70;;;;;;5054517;28;20048;-73
2021/12/12 10:49:52;;;;;;;3.88;2.03;;;6.00;55.70;;;;;;5054528;28;20067;-73
2021/12/12 10:52:36;;;;;;;3.05;1.48;;;6.00;55.60;;;;;;5054910;28;20492;-73
2021/12/12 10:55:17;;;;;;;3.97;2.00;;;5.90;54.60;;;;;;5054004;28;20048;-72
2021/12/12 10:57:49;;;;;;;1.67;1.40;;;5.80;55.70;;;;;;5037011;28;20060;-73
2021/12/12 11:00:21;;;;;;;1.95;1.00;;;5.70;56.10;;;;;;5054819;28;20469;-72
2021/12/12 11:03:10;;;;;;;1.73;1.00;;;5.60;54.50;;;;;;5054838;28;20029;-73
2021/12/12 11:05:41;;;;;;;2.78;1.65;;;5.50;55.40;;;;;;5054670;28;20025;-75
2021/12/12 11:08:10;;;;;;;2.03;1.45;;;5.60;55.50;;;;;;5054654;28;20025;-74
2021/12/12 11:10:39;;;;;;;2.33;1.42;;;5.70;56.90;;;;;;5054639;28;20035;-73
2021/12/12 11:13:14;;;;;;;2.35;1.83;;;5.70;57.80;;;;;;5054471;28;20041;-75
2021/12/12 11:15:56;;;;;;;3.33;2.00;;;5.80;58.00;;;;;;5054326;28;20025;-76
2021/12/12 11:18:30;;;;;;;2.33;1.65;;;5.80;58.60;;;;;;5036386;28;20032;-73
2021/12/12 11:21:34;;;;;;;2.65;1.67;;;5.70;58.20;;;;;;5054295;28;20040;-74
2021/12/12 11:24:04;;;;;;;2.28;1.77;;;5.70;58.60;;;;;;5037004;28;20470;-75
2021/12/12 11:26:40;;;;;;;2.08;1.40;;;5.80;59.30;;;;;;5054349;28;20036;-72
2021/12/12 11:29:17;;;;;;;2.63;1.75;;;5.90;59.50;;;;;;5054214;28;20031;-74
2021/12/12 11:31:56;;;;;;;2.60;1.90;;;5.80;59.40;;;;;;5054036;28;20378;-72
2021/12/12 11:34:25;;;;;;;2.45;1.92;;;5.80;60.50;;;;;;5054021;28;20044;-71
2021/12/12 11:37:03;;;;;;;3.88;2.35;;;5.80;60.90;;;;;;5054020;28;20029;-74
2021/12/12 11:39:39;;;;;;;4.20;1.95;;;5.80;60.40;;;;;;5054137;28;20716;-72
2021/12/12 11:42:38;;;;;;;1.83;1.48;;;5.70;60.20;;;;;;5054085;28;20381;-75
2021/12/12 11:45:20;;;;;;;3.22;2.05;;;5.60;60.80;;;;;;5053750;28;20025;-74
2021/12/12 11:48:13;;;;;;;4.22;1.77;;;5.80;61.40;;;;;;5053790;28;20032;-73
2021/12/12 11:50:57;;;;;;;2.33;1.77;;;5.80;61.30;;;;;;5053903;28;20028;-74
2021/12/12 11:53:44;;;;;;;2.38;1.65;;;5.90;60.90;;;;;;5035699;28;20032;-74
2021/12/12 11:56:14;;;;;;;2.38;2.00;;;5.90;60.10;;;;;;5053568;28;20033;-74
2021/12/12 11:58:45;;;;;;;4.70;2.00;;;5.90;60.10;;;;;;5035585;28;20458;-75
2021/12/12 12:01:33;;;;;;;4.32;2.40;;;6.00;60.20;;;;;;5035803;28;20032;-74
2021/12/12 12:04:20;;;;;;;3.17;2.47;;;6.00;60.50;;;;;;5035743;28;20021;-74
2021/12/12 12:07:11;;;;;;;6.50;2.00;;;6.20;59.80;;;;;;5053414;28;20031;-72
2021/12/12 12:10:11;;;;;;;2.38;1.60;;;6.80;58.40;;;;;;5053207;28;20159;-72
2021/12/12 12:12:58;;;;;;;3.17;1.95;;;8.30;54.70;;;;;;5010698;28;20040;-74
2021/12/12 12:16:05;;;;;;;3.20;1.58;;;9.30;50.50;;;;;;5053159;28;20602;-72
2021/12/12 12:18:33;;;;;;;;;;;9.60;47.30;;;;;;5049580;28;20518;-74
2021/12/12 12:21:15;;;;;;;3.05;1.85;;;9.30;47.10;;;;;;5053165;28;20255;-71
2021/12/12 12:26:51;;;;;;;2.85;1.90;;;9.10;48.60;;;;;;5053233;28;20029;-74
2021/12/12 12:29:31;;;;;;;3.40;1.92;;;8.80;48.10;;;;;;5053217;28;20017;-73
2021/12/12 12:32:38;;;;;;;2.45;1.48;;;8.40;50.30;;;;;;5035065;28;20041;-73
2021/12/12 12:35:38;;;;;;;3.05;1.77;;;7.90;52.00;;;;;;5052975;28;20155;-73
2021/12/12 12:38:26;;;;;;;2.28;1.75;;;7.50;54.20;;;;;;5053945;28;20127;-78
2021/12/12 12:41:29;;;;;;;5.85;2.38;;;7.00;55.90;;;;;;5053326;28;20481;-79
2021/12/12 12:44:29;;;;;;;10.75;7.05;;;6.80;57.50;;;;;;5035535;28;20115;-79
2021/12/12 12:47:42;;;;;;;9.60;6.10;;;6.70;58.50;;;;;;5053379;28;20024;-78
2021/12/12 12:50:39;;;;;;;7.10;2.85;;;6.50;59.40;;;;;;5035166;28;20496;-76
2021/12/12 12:53:29;;;;;;;6.75;3.80;;;6.50;60.40;;;;;;5053228;28;20355;-75
2021/12/12 12:56:23;;;;;;;4.82;2.90;;;6.40;60.10;;;;;;5041446;28;20033;-75
2021/12/12 12:58:52;;;;;;;4.13;2.70;;;6.40;60.20;;;;;;5057656;28;20083;-74
2021/12/12 13:01:53;;;;;;;2.20;1.80;;;6.40;60.20;;;;;;5053563;28;20359;-75
2021/12/12 13:04:39;;;;;;;5.68;2.20;;;6.50;59.80;;;;;;5021229;28;20367;-77
2021/12/12 13:07:21;;;;;;;4.65;2.30;;;6.50;58.60;;;;;;5053469;28;20063;-76
2021/12/12 13:10:16;;;;;;;5.65;3.60;;;6.40;58.00;;;;;;5053288;28;20031;-77
2021/12/12 13:13:03;;;;;;;6.50;4.30;;;6.40;58.90;;;;;;5052988;28;20501;-75
2021/12/12 13:15:49;;;;;;;5.05;2.80;;;6.40;58.80;;;;;;5052739;28;20330;-76
2021/12/12 13:18:26;;;;;;;;;;;6.40;59.20;;;;;;5036080;28;20068;-77
2021/12/12 13:21:37;;;;;;;10.05;7.22;;;6.40;58.70;;;;;;5057024;28;19909;-75
2021/12/12 13:24:32;;;;;;;17.80;8.27;;;6.40;57.80;;;;;;5052859;28;20390;-75
2021/12/12 13:27:34;;;;;;;11.25;7.50;;;6.60;57.60;;;;;;5056869;28;20108;-74
2021/12/12 13:30:15;;;;;;;4.60;2.22;;;6.70;57.00;;;;;;5056827;28;20029;-74
2021/12/12 13:33:18;;;;;;;59.40;28.52;;;6.70;56.90;;;;;;5056569;28;20141;-75
2021/12/12 13:36:02;;;;;;;26.88;14.48;;;6.60;57.50;;;;;;5056416;28;20401;-75
2021/12/12 13:38:41;;;;;;;37.75;19.33;;;6.70;58.00;;;;;;5056281;28;20082;-75
2021/12/12 13:41:16;;;;;;;20.88;11.38;;;6.70;57.50;;;;;;5056206;28;20092;-75
2021/12/12 13:43:50;;;;;;;;;;;6.80;57.60;;;;;;5056847;28;20024;-75
2021/12/12 13:47:08;;;;;;;32.40;17.27;;;6.90;57.40;;;;;;5056459;28;19904;-75
2021/12/12 13:49:41;;;;;;;39.00;27.55;;;6.90;56.70;;;;;;4975740;28;20479;-75
2021/12/12 13:52:20;;;;;;;14.20;8.15;;;6.90;54.80;;;;;;5052419;28;20039;-75
2021/12/12 13:55:10;;;;;;;3.22;2.13;;;7.00;53.70;;;;;;5056247;28;20048;-75
2021/12/12 13:58:02;;;;;;;2.28;1.73;;;7.10;53.60;;;;;;5056022;28;20428;-75
2021/12/12 14:00:55;;;;;;;4.90;3.85;;;7.20;52.70;;;;;;5020853;28;20033;-75
2021/12/12 14:03:33;;;;;;;3.58;2.33;;;7.20;52.60;;;;;;5056527;28;20428;-76